createdAt,value
2017-04-16T04:00:32.797Z,6.7
2017-04-16T04:00:58.308Z,6.7
2017-04-16T04:01:23.800Z,6.78
2017-04-16T04:01:49.303Z,6.72
2017-04-16T04:02:14.785Z,6.78
2017-04-16T04:02:40.275Z,6.77
2017-04-16T04:03:05.774Z,6.74
2017-04-16T04:03:31.266Z,6.72
2017-04-16T04:03:56.760Z,6.72
2017-04-16T04:04:22.278Z,6.75
2017-04-16T04:04:47.793Z,6.7
2017-04-16T04:05:13.329Z,6.79
2017-04-16T04:05:38.810Z,6.75
2017-04-16T04:06:04.326Z,6.67
2017-04-16T04:06:29.839Z,6.77
2017-04-16T04:06:55.337Z,6.72
2017-04-16T04:07:20.833Z,6.6
2017-04-16T04:07:46.321Z,6.64
2017-04-16T04:08:11.799Z,6.74
2017-04-16T04:08:37.328Z,6.7
2017-04-16T04:09:02.813Z,6.77
2017-04-16T04:09:28.323Z,6.75
2017-04-16T04:09:53.822Z,6.57
2017-04-16T04:10:19.335Z,6.75
2017-04-16T04:10:44.812Z,6.64
2017-04-16T04:11:10.317Z,6.69
2017-04-16T04:11:35.830Z,6.72
2017-04-16T04:12:01.326Z,6.66
2017-04-16T04:12:26.830Z,6.77
2017-04-16T04:12:52.293Z,6.63
2017-04-16T04:13:17.784Z,6.75
2017-04-16T04:13:43.307Z,6.66
2017-04-16T04:14:08.814Z,6.81
2017-04-16T04:14:34.310Z,6.79
2017-04-16T04:14:59.864Z,6.81
2017-04-16T04:15:25.399Z,6.82
2017-04-16T04:15:50.882Z,6.7
2017-04-16T04:16:16.340Z,6.78
2017-04-16T04:16:41.853Z,6.59
2017-04-16T04:17:07.407Z,6.7
2017-04-16T04:17:32.939Z,6.7
2017-04-16T04:17:58.446Z,6.74
2017-04-16T04:18:23.949Z,6.67
2017-04-16T04:18:49.459Z,6.77
2017-04-16T04:19:14.968Z,6.78
2017-04-16T04:19:40.465Z,6.78
2017-04-16T04:20:05.969Z,6.74
2017-04-16T04:20:31.447Z,6.79
2017-04-16T04:20:56.959Z,6.7
2017-04-16T04:21:22.440Z,6.69
2017-04-16T04:21:47.927Z,6.79
2017-04-16T04:22:13.400Z,6.87
2017-04-16T04:22:38.917Z,6.77
2017-04-16T04:23:04.438Z,6.78
2017-04-16T04:23:29.949Z,6.85
2017-04-16T04:23:55.442Z,6.81
2017-04-16T04:24:21.003Z,6.77
2017-04-16T04:24:46.505Z,6.85
2017-04-16T04:25:12.024Z,6.78
2017-04-16T04:25:37.606Z,6.81
2017-04-16T04:26:03.115Z,6.81
2017-04-16T04:26:28.601Z,6.92
2017-04-16T04:26:54.057Z,6.79
2017-04-16T04:27:19.547Z,6.77
2017-04-16T04:27:45.024Z,6.79
2017-04-16T04:28:10.557Z,6.79
2017-04-16T04:28:36.057Z,6.79
2017-04-16T04:29:01.524Z,6.84
2017-04-16T04:29:27.017Z,6.88
2017-04-16T04:29:52.499Z,6.87
2017-04-16T04:30:17.985Z,6.82
2017-04-16T04:30:43.494Z,6.72
2017-04-16T04:31:09.007Z,6.82
2017-04-16T04:31:34.497Z,6.87
2017-04-16T04:31:59.978Z,6.92
2017-04-16T04:32:25.469Z,6.79
2017-04-16T04:32:50.996Z,6.81
2017-04-16T04:33:16.479Z,6.85
2017-04-16T04:33:41.977Z,6.88
2017-04-16T04:34:07.467Z,6.92
2017-04-16T04:34:32.992Z,6.85
2017-04-16T04:34:58.476Z,6.93
2017-04-16T04:35:23.944Z,6.93
2017-04-16T04:35:49.437Z,6.92
2017-04-16T04:36:14.929Z,6.93
2017-04-16T04:36:40.440Z,6.87
2017-04-16T04:37:05.947Z,6.88
2017-04-16T04:37:31.411Z,6.88
2017-04-16T04:37:56.891Z,6.85
2017-04-16T04:38:22.373Z,6.72
2017-04-16T04:38:47.857Z,6.81
2017-04-16T04:39:13.392Z,6.85
2017-04-16T04:39:38.881Z,6.84
2017-04-16T04:40:04.376Z,6.96
2017-04-16T04:40:29.851Z,6.84
2017-04-16T04:40:55.360Z,6.85
2017-04-16T04:41:20.849Z,6.84
2017-04-16T04:41:46.362Z,6.89
2017-04-16T04:42:11.865Z,6.92
2017-04-16T04:42:37.341Z,6.84
2017-04-16T04:43:02.853Z,6.82
2017-04-16T04:43:28.358Z,6.88
2017-04-16T04:43:53.832Z,6.85
2017-04-16T04:44:19.355Z,6.89
2017-04-16T04:44:44.826Z,6.82
2017-04-16T04:45:10.329Z,6.77
2017-04-16T04:45:35.849Z,6.84
2017-04-16T04:46:01.349Z,6.78
2017-04-16T04:46:26.843Z,6.87
2017-04-16T04:46:52.337Z,6.84
2017-04-16T04:47:17.896Z,6.87
2017-04-16T04:47:43.375Z,6.87
2017-04-16T04:48:08.913Z,6.84
2017-04-16T04:48:34.382Z,6.77
2017-04-16T04:48:59.885Z,6.79
2017-04-16T04:49:25.391Z,6.85
2017-04-16T04:49:50.880Z,6.77
2017-04-16T04:50:16.396Z,6.77
2017-04-16T04:50:41.936Z,6.78
2017-04-16T04:51:07.420Z,6.88
2017-04-16T04:51:32.913Z,6.78
2017-04-16T04:51:58.388Z,6.81
2017-04-16T04:52:23.882Z,6.84
2017-04-16T04:52:49.360Z,6.92
2017-04-16T04:53:14.883Z,6.87
2017-04-16T04:53:40.391Z,6.89
2017-04-16T04:54:05.902Z,6.72
2017-04-16T04:54:31.420Z,6.85
2017-04-16T04:54:56.975Z,6.78
2017-04-16T04:55:22.475Z,6.88
2017-04-16T04:55:47.970Z,6.89
2017-04-16T04:56:13.469Z,6.85
2017-04-16T04:56:38.992Z,6.93
2017-04-16T04:57:04.487Z,6.97
2017-04-16T04:57:29.969Z,6.92
2017-04-16T04:57:55.467Z,6.87
2017-04-16T04:58:20.961Z,6.96
2017-04-16T04:58:46.457Z,6.85
2017-04-16T04:59:11.964Z,6.95
2017-04-16T04:59:37.449Z,6.92
2017-04-16T05:00:02.950Z,6.96
2017-04-16T05:00:28.446Z,6.93
2017-04-16T05:00:53.943Z,6.82
2017-04-16T05:01:19.447Z,6.89
2017-04-16T05:01:44.940Z,6.96
2017-04-16T05:02:10.439Z,6.89
2017-04-16T05:02:35.920Z,6.93
2017-04-16T05:03:01.407Z,6.96
2017-04-16T05:03:26.910Z,6.89
2017-04-16T05:03:52.415Z,6.93
2017-04-16T05:04:17.907Z,6.99
2017-04-16T05:04:43.386Z,6.89
2017-04-16T05:05:08.909Z,7.03
2017-04-16T05:05:34.397Z,6.92
2017-04-16T05:05:59.882Z,6.87
2017-04-16T05:06:25.329Z,6.89
2017-04-16T05:06:50.810Z,6.93
2017-04-16T05:07:16.282Z,6.92
2017-04-16T05:07:41.773Z,6.93
2017-04-16T05:08:07.238Z,6.96
2017-04-16T05:08:32.710Z,6.96
2017-04-16T05:08:58.193Z,6.93
2017-04-16T05:09:23.702Z,7
2017-04-16T05:09:49.192Z,6.87
2017-04-16T05:10:14.683Z,7.02
2017-04-16T05:10:40.160Z,7.1
2017-04-16T05:11:05.674Z,6.97
2017-04-16T05:11:31.162Z,7.03
2017-04-16T05:11:56.665Z,7.06
2017-04-16T05:12:22.172Z,6.88
2017-04-16T05:12:47.682Z,7.06
2017-04-16T05:13:13.178Z,7.05
2017-04-16T05:13:38.681Z,7.06
2017-04-16T05:14:04.171Z,7.15
2017-04-16T05:14:29.673Z,7.03
2017-04-16T05:14:55.140Z,7.06
2017-04-16T05:15:20.631Z,7.05
2017-04-16T05:15:46.136Z,7.06
2017-04-16T05:16:11.622Z,7.05
2017-04-16T05:16:37.133Z,7.11
2017-04-16T05:17:02.615Z,7.15
2017-04-16T05:17:28.125Z,7.05
2017-04-16T05:17:53.611Z,7.21
2017-04-16T05:18:19.109Z,7.03
2017-04-16T05:18:44.612Z,7.18
2017-04-16T05:19:10.087Z,7.06
2017-04-16T05:19:35.560Z,7.05
2017-04-16T05:20:01.052Z,7.06
2017-04-16T05:20:26.600Z,7.2
2017-04-16T05:20:52.106Z,7.17
2017-04-16T05:21:17.618Z,7.18
2017-04-16T05:21:43.104Z,7.24
2017-04-16T05:22:08.603Z,7.2
2017-04-16T05:22:34.100Z,7.06
2017-04-16T05:22:59.598Z,7.05
2017-04-16T05:23:25.066Z,7.17
2017-04-16T05:23:50.553Z,7.23
2017-04-16T05:24:16.049Z,7.21
2017-04-16T05:24:41.516Z,7.25
2017-04-16T05:25:06.990Z,7.24
2017-04-16T05:25:32.503Z,7.25
2017-04-16T05:25:57.989Z,7.17
2017-04-16T05:26:23.495Z,7.18
2017-04-16T05:26:48.990Z,7.23
2017-04-16T05:27:14.483Z,7.2
2017-04-16T05:27:39.980Z,7.2
2017-04-16T05:28:05.465Z,7.23
2017-04-16T05:28:30.987Z,7.25
2017-04-16T05:28:56.491Z,7.31
2017-04-16T05:29:22.016Z,7.32
2017-04-16T05:29:47.501Z,7.35
2017-04-16T05:30:12.984Z,7.24
2017-04-16T05:30:38.459Z,7.25
2017-04-16T05:31:03.970Z,7.23
2017-04-16T05:31:29.475Z,7.18
2017-04-16T05:31:54.950Z,7.25
2017-04-16T05:32:20.429Z,7.29
2017-04-16T05:32:45.917Z,7.36
2017-04-16T05:33:11.398Z,7.28
2017-04-16T05:33:36.897Z,7.2
2017-04-16T05:34:02.397Z,7.31
2017-04-16T05:34:27.862Z,7.25
2017-04-16T05:34:53.352Z,7.4
2017-04-16T05:35:18.852Z,7.35
2017-04-16T05:35:44.334Z,7.35
2017-04-16T05:36:09.822Z,7.45
2017-04-16T05:36:35.319Z,7.4
2017-04-16T05:37:00.797Z,7.35
2017-04-16T05:37:26.307Z,7.35
2017-04-16T05:37:51.785Z,7.33
2017-04-16T05:38:17.275Z,7.36
2017-04-16T05:38:42.813Z,7.38
2017-04-16T05:39:08.329Z,7.32
2017-04-16T05:39:33.831Z,7.35
2017-04-16T05:39:59.352Z,7.38
2017-04-16T05:40:24.829Z,7.31
2017-04-16T05:40:50.330Z,7.35
2017-04-16T05:41:15.818Z,7.42
2017-04-16T05:41:41.316Z,7.38
2017-04-16T05:42:06.844Z,7.42
2017-04-16T05:42:32.311Z,7.51
2017-04-16T05:42:57.816Z,7.42
2017-04-16T05:43:23.322Z,7.48
2017-04-16T05:43:48.801Z,7.42
2017-04-16T05:44:14.298Z,7.43
2017-04-16T05:44:39.797Z,7.48
2017-04-16T05:45:05.361Z,7.54
2017-04-16T05:45:30.865Z,7.47
2017-04-16T05:45:56.367Z,7.51
2017-04-16T05:46:21.814Z,7.53
2017-04-16T05:46:47.310Z,7.5
2017-04-16T05:47:12.812Z,7.4
2017-04-16T05:47:38.330Z,7.42
2017-04-16T05:48:03.815Z,7.51
2017-04-16T05:48:29.327Z,7.5
2017-04-16T05:48:54.811Z,7.54
2017-04-16T05:49:20.337Z,7.51
2017-04-16T05:49:45.810Z,7.45
2017-04-16T05:50:11.322Z,7.51
2017-04-16T05:50:36.846Z,7.48
2017-04-16T05:51:02.341Z,7.45
2017-04-16T05:51:27.801Z,7.53
2017-04-16T05:51:53.310Z,7.54
2017-04-16T05:52:18.831Z,7.54
2017-04-16T05:52:44.358Z,7.63
2017-04-16T05:53:09.829Z,7.51
2017-04-16T05:53:35.323Z,7.6
2017-04-16T05:54:00.812Z,7.48
2017-04-16T05:54:26.312Z,7.5
2017-04-16T05:54:51.849Z,7.47
2017-04-16T05:55:17.336Z,7.6
2017-04-16T05:55:42.867Z,7.51
2017-04-16T05:56:08.403Z,7.5
2017-04-16T05:56:33.896Z,7.58
2017-04-16T05:56:59.411Z,7.5
2017-04-16T05:57:24.963Z,7.57
2017-04-16T05:57:50.438Z,7.53
2017-04-16T05:58:15.944Z,7.48
2017-04-16T05:58:41.418Z,7.5
2017-04-16T05:59:06.913Z,7.6
2017-04-16T05:59:32.407Z,7.6
2017-04-16T05:59:57.918Z,7.56
2017-04-16T06:00:23.434Z,7.54
2017-04-16T06:00:48.911Z,7.69
2017-04-16T06:01:14.410Z,7.57
2017-04-16T06:01:39.936Z,7.72
2017-04-16T06:02:05.418Z,7.76
2017-04-16T06:02:30.914Z,7.72
2017-04-16T06:02:56.417Z,7.82
2017-04-16T06:03:21.948Z,7.72
2017-04-16T06:03:47.430Z,7.77
2017-04-16T06:04:12.944Z,7.8
2017-04-16T06:04:38.439Z,7.83
2017-04-16T06:05:03.915Z,7.88
2017-04-16T06:05:29.417Z,7.85
2017-04-16T06:05:54.908Z,7.91
2017-04-16T06:06:20.405Z,7.8
2017-04-16T06:06:45.908Z,7.97
2017-04-16T06:07:11.401Z,8.01
2017-04-16T06:07:36.923Z,7.97
2017-04-16T06:08:02.431Z,7.85
2017-04-16T06:08:27.943Z,8.01
2017-04-16T06:08:53.440Z,7.97
2017-04-16T06:09:18.937Z,7.94
2017-04-16T06:09:44.439Z,8.06
2017-04-16T06:10:09.938Z,8.09
2017-04-16T06:10:35.429Z,8.09
2017-04-16T06:11:00.932Z,8.13
2017-04-16T06:11:26.395Z,8.23
2017-04-16T06:11:51.893Z,8.08
2017-04-16T06:12:17.417Z,8.08
2017-04-16T06:12:42.914Z,8.06
2017-04-16T06:13:08.421Z,8.01
2017-04-16T06:13:33.945Z,8.01
2017-04-16T06:13:59.440Z,8.05
2017-04-16T06:14:24.915Z,8.16
2017-04-16T06:14:50.410Z,8.09
2017-04-16T06:15:15.923Z,8.15
2017-04-16T06:15:41.432Z,8.19
2017-04-16T06:16:06.915Z,8.13
2017-04-16T06:16:32.451Z,8.18
2017-04-16T06:16:57.970Z,8.19
2017-04-16T06:17:23.454Z,8.23
2017-04-16T06:17:48.967Z,8.24
2017-04-16T06:18:14.482Z,8.3
2017-04-16T06:18:39.991Z,8.3
2017-04-16T06:19:05.468Z,8.26
2017-04-16T06:19:30.968Z,8.19
2017-04-16T06:19:56.468Z,8.2
2017-04-16T06:20:21.973Z,8.2
2017-04-16T06:20:47.466Z,8.24
2017-04-16T06:21:12.980Z,8.26
2017-04-16T06:21:38.478Z,8.23
2017-04-16T06:22:03.967Z,8.24
2017-04-16T06:22:29.472Z,8.2
2017-04-16T06:22:54.960Z,8.37
2017-04-16T06:23:20.438Z,8.34
2017-04-16T06:23:45.960Z,8.23
2017-04-16T06:24:11.464Z,8.09
2017-04-16T06:24:37.006Z,8.23
2017-04-16T06:25:02.545Z,8.19
2017-04-16T06:25:28.048Z,8.23
2017-04-16T06:25:53.526Z,8.26
2017-04-16T06:26:19.036Z,8.26
2017-04-16T06:26:44.522Z,8.31
2017-04-16T06:27:10.036Z,8.33
2017-04-16T06:27:35.529Z,8.24
2017-04-16T06:28:01.031Z,8.42
2017-04-16T06:28:26.559Z,8.38
2017-04-16T06:28:52.048Z,8.33
2017-04-16T06:29:17.559Z,8.3
2017-04-16T06:29:43.050Z,8.27
2017-04-16T06:30:08.564Z,8.42
2017-04-16T06:30:34.036Z,8.38
2017-04-16T06:30:59.549Z,8.46
2017-04-16T06:31:25.039Z,8.48
2017-04-16T06:31:50.510Z,8.44
2017-04-16T06:32:16.006Z,8.53
2017-04-16T06:32:41.515Z,8.48
2017-04-16T06:33:06.994Z,8.52
2017-04-16T06:33:32.487Z,8.51
2017-04-16T06:33:57.981Z,8.58
2017-04-16T06:34:23.478Z,8.67
2017-04-16T06:34:48.973Z,8.61
2017-04-16T06:35:14.439Z,8.74
2017-04-16T06:35:39.935Z,8.81
2017-04-16T06:36:05.409Z,8.7
2017-04-16T06:36:30.886Z,8.73
2017-04-16T06:36:56.393Z,8.73
2017-04-16T06:37:21.876Z,8.79
2017-04-16T06:37:47.362Z,8.84
2017-04-16T06:38:12.873Z,8.74
2017-04-16T06:38:38.359Z,8.87
2017-04-16T06:39:03.836Z,8.71
2017-04-16T06:39:29.353Z,8.78
2017-04-16T06:39:54.854Z,8.7
2017-04-16T06:40:20.383Z,8.85
2017-04-16T06:40:45.876Z,8.78
2017-04-16T06:41:11.373Z,8.91
2017-04-16T06:41:36.903Z,8.87
2017-04-16T06:42:02.420Z,8.71
2017-04-16T06:42:27.874Z,8.84
2017-04-16T06:42:53.389Z,8.89
2017-04-16T06:43:18.889Z,8.87
2017-04-16T06:43:44.390Z,8.87
2017-04-16T06:44:09.870Z,8.85
2017-04-16T06:44:35.391Z,8.82
2017-04-16T06:45:00.861Z,8.78
2017-04-16T06:45:26.373Z,8.73
2017-04-16T06:45:51.880Z,8.79
2017-04-16T06:46:17.414Z,8.82
2017-04-16T06:46:42.936Z,8.74
2017-04-16T06:47:08.478Z,8.78
2017-04-16T06:47:34.006Z,8.92
2017-04-16T06:47:59.589Z,8.94
2017-04-16T06:48:25.069Z,8.85
2017-04-16T06:48:50.575Z,8.87
2017-04-16T06:49:16.093Z,8.85
2017-04-16T06:49:41.630Z,8.91
2017-04-16T06:50:07.123Z,8.87
2017-04-16T06:50:32.618Z,8.95
2017-04-16T06:50:58.105Z,8.87
2017-04-16T06:51:23.610Z,8.99
2017-04-16T06:51:49.149Z,9.14
2017-04-16T06:52:14.641Z,8.94
2017-04-16T06:52:40.121Z,8.94
2017-04-16T06:53:05.625Z,8.92
2017-04-16T06:53:31.116Z,8.99
2017-04-16T06:53:56.705Z,9.06
2017-04-16T06:54:22.203Z,9
2017-04-16T06:54:47.694Z,9.13
2017-04-16T06:55:13.189Z,9.13
2017-04-16T06:55:38.709Z,9.22
2017-04-16T06:56:04.218Z,9.23
2017-04-16T06:56:29.697Z,9.19
2017-04-16T06:56:55.180Z,9.18
2017-04-16T06:57:20.668Z,9.19
2017-04-16T06:57:46.162Z,9.18
2017-04-16T06:58:11.680Z,9.1
2017-04-16T06:58:37.162Z,9.06
2017-04-16T06:59:02.653Z,9.08
2017-04-16T06:59:28.189Z,9.16
2017-04-16T06:59:53.688Z,9.16
2017-04-16T07:00:19.186Z,9.14
2017-04-16T07:00:44.650Z,9.08
2017-04-16T07:01:10.139Z,9.19
2017-04-16T07:01:35.618Z,9.1
2017-04-16T07:02:01.099Z,9.19
2017-04-16T07:02:26.590Z,9.22
2017-04-16T07:02:52.113Z,9.22
2017-04-16T07:03:17.625Z,9.19
2017-04-16T07:03:43.109Z,9.26
2017-04-16T07:04:08.579Z,9.26
2017-04-16T07:04:34.053Z,9.34
2017-04-16T07:04:59.542Z,9.47
2017-04-16T07:05:25.015Z,9.5
2017-04-16T07:05:50.534Z,9.59
2017-04-16T07:06:16.001Z,9.58
2017-04-16T07:06:41.467Z,9.5
2017-04-16T07:07:06.976Z,9.59
2017-04-16T07:07:32.461Z,9.55
2017-04-16T07:07:57.951Z,9.56
2017-04-16T07:08:23.464Z,9.5
2017-04-16T07:08:48.943Z,9.61
2017-04-16T07:09:14.455Z,9.55
2017-04-16T07:09:39.921Z,9.44
2017-04-16T07:10:05.430Z,9.55
2017-04-16T07:10:30.919Z,9.46
2017-04-16T07:10:56.415Z,9.5
2017-04-16T07:11:21.929Z,9.4
2017-04-16T07:11:47.481Z,9.5
2017-04-16T07:12:13.011Z,9.48
2017-04-16T07:12:38.589Z,9.5
2017-04-16T07:13:04.157Z,9.54
2017-04-16T07:13:29.665Z,9.66
2017-04-16T07:13:55.221Z,9.69
2017-04-16T07:14:20.720Z,9.64
2017-04-16T07:14:46.303Z,9.69
2017-04-16T07:15:11.927Z,9.56
2017-04-16T07:15:37.499Z,9.68
2017-04-16T07:16:03.059Z,9.74
2017-04-16T07:16:28.598Z,9.74
2017-04-16T07:16:54.176Z,9.76
2017-04-16T07:17:19.682Z,9.77
2017-04-16T07:17:45.212Z,9.79
2017-04-16T07:18:10.816Z,9.84
2017-04-16T07:18:36.323Z,9.8
2017-04-16T07:19:01.853Z,9.86
2017-04-16T07:19:27.385Z,9.89
2017-04-16T07:19:52.884Z,9.73
2017-04-16T07:20:18.418Z,9.84
2017-04-16T07:20:43.960Z,9.89
2017-04-16T07:21:09.450Z,10.02
2017-04-16T07:21:35.101Z,9.95
2017-04-16T07:22:00.615Z,9.92
2017-04-16T07:22:26.145Z,9.92
2017-04-16T07:22:51.634Z,9.92
2017-04-16T07:23:18.006Z,9.98
2017-04-16T07:23:43.503Z,9.95
2017-04-16T07:24:08.997Z,9.94
2017-04-16T07:24:34.495Z,9.92
2017-04-16T07:24:59.992Z,9.98
2017-04-16T07:25:25.488Z,10.07
2017-04-16T07:25:50.971Z,10.04
2017-04-16T07:26:16.497Z,10.07
2017-04-16T07:26:41.964Z,10.13
2017-04-16T07:27:07.461Z,10.31
2017-04-16T07:27:32.948Z,10.26
2017-04-16T07:27:58.427Z,10.25
2017-04-16T07:28:23.894Z,10.15
2017-04-16T07:28:49.421Z,10.15
2017-04-16T07:29:14.910Z,10.26
2017-04-16T07:29:40.373Z,10.07
2017-04-16T07:30:05.896Z,10.01
2017-04-16T07:30:31.379Z,10.15
2017-04-16T07:30:56.878Z,10.31
2017-04-16T07:31:22.384Z,10.38
2017-04-16T07:31:47.872Z,10.42
2017-04-16T07:32:13.467Z,10.37
2017-04-16T07:32:38.984Z,10.51
2017-04-16T07:33:04.485Z,10.48
2017-04-16T07:33:30.006Z,10.53
2017-04-16T07:33:55.506Z,10.67
2017-04-16T07:34:20.985Z,10.69
2017-04-16T07:34:46.519Z,10.68
2017-04-16T07:35:12.005Z,10.67
2017-04-16T07:35:37.495Z,10.63
2017-04-16T07:36:03.009Z,10.72
2017-04-16T07:36:28.484Z,10.63
2017-04-16T07:36:54.074Z,10.56
2017-04-16T07:37:19.549Z,10.57
2017-04-16T07:37:45.023Z,10.57
2017-04-16T07:38:10.506Z,10.57
2017-04-16T07:38:36.022Z,10.59
2017-04-16T07:39:01.524Z,10.61
2017-04-16T07:39:27.001Z,10.74
2017-04-16T07:39:52.504Z,10.69
2017-04-16T07:40:17.991Z,10.64
2017-04-16T07:40:43.471Z,10.78
2017-04-16T07:41:08.972Z,10.86
2017-04-16T07:41:34.519Z,10.96
2017-04-16T07:42:00.005Z,10.92
2017-04-16T07:42:25.499Z,10.78
2017-04-16T07:42:51.002Z,10.87
2017-04-16T07:43:16.504Z,10.79
2017-04-16T07:43:42.022Z,10.78
2017-04-16T07:44:07.499Z,10.76
2017-04-16T07:44:33.108Z,10.74
2017-04-16T07:44:58.601Z,10.82
2017-04-16T07:45:24.054Z,10.68
2017-04-16T07:45:49.514Z,10.76
2017-04-16T07:46:14.990Z,10.71
2017-04-16T07:46:40.505Z,10.84
2017-04-16T07:47:06.012Z,10.79
2017-04-16T07:47:31.515Z,10.78
2017-04-16T07:47:57.026Z,10.81
2017-04-16T07:48:22.519Z,10.79
2017-04-16T07:48:48.018Z,10.87
2017-04-16T07:49:13.514Z,10.96
2017-04-16T07:49:39.005Z,11
2017-04-16T07:50:04.502Z,10.93
2017-04-16T07:50:30.019Z,11.08
2017-04-16T07:50:55.546Z,11.07
2017-04-16T07:51:21.020Z,11.17
2017-04-16T07:51:46.573Z,11.1
2017-04-16T07:52:12.054Z,11.12
2017-04-16T07:52:37.553Z,11.18
2017-04-16T07:53:03.066Z,11.12
2017-04-16T07:53:28.552Z,11.18
2017-04-16T07:53:54.087Z,11.12
2017-04-16T07:54:19.594Z,11.12
2017-04-16T07:54:45.080Z,11.12
2017-04-16T07:55:10.576Z,11.19
2017-04-16T07:55:36.093Z,11.19
2017-04-16T07:56:01.586Z,11.12
2017-04-16T07:56:27.108Z,11.23
2017-04-16T07:56:52.613Z,11.07
2017-04-16T07:57:18.123Z,11.05
2017-04-16T07:57:43.588Z,11.05
2017-04-16T07:58:09.061Z,11.14
2017-04-16T07:58:34.559Z,11.22
2017-04-16T07:59:00.076Z,11.19
2017-04-16T07:59:25.577Z,11.11
2017-04-16T07:59:51.051Z,11.07
2017-04-16T08:00:16.544Z,11.18
2017-04-16T08:00:42.105Z,11.22
2017-04-16T08:01:07.683Z,11.44
2017-04-16T08:01:33.166Z,11.23
2017-04-16T08:01:58.673Z,11.32
2017-04-16T08:02:24.161Z,11.11
2017-04-16T08:02:49.664Z,11.15
2017-04-16T08:03:15.188Z,10.99
2017-04-16T08:03:40.692Z,11.08
2017-04-16T08:04:06.234Z,11.1
2017-04-16T08:04:31.723Z,11.19
2017-04-16T08:04:57.237Z,11.14
2017-04-16T08:05:22.717Z,11.15
2017-04-16T08:05:48.227Z,11.22
2017-04-16T08:06:13.747Z,11.15
2017-04-16T08:06:39.270Z,11.18
2017-04-16T08:07:04.793Z,11.15
2017-04-16T08:07:30.300Z,11.32
2017-04-16T08:07:55.807Z,11.32
2017-04-16T08:08:21.307Z,11.36
2017-04-16T08:08:46.774Z,11.45
2017-04-16T08:09:12.292Z,11.51
2017-04-16T08:09:37.760Z,11.29
2017-04-16T08:10:03.275Z,11.33
2017-04-16T08:10:28.774Z,11.3
2017-04-16T08:10:54.294Z,11.32
2017-04-16T08:11:19.794Z,11.35
2017-04-16T08:11:45.288Z,11.35
2017-04-16T08:12:10.870Z,11.48
2017-04-16T08:12:36.347Z,11.54
2017-04-16T08:13:01.850Z,11.63
2017-04-16T08:13:27.339Z,11.54
2017-04-16T08:13:52.873Z,11.54
2017-04-16T08:14:18.365Z,11.48
2017-04-16T08:14:43.846Z,11.69
2017-04-16T08:15:09.357Z,11.63
2017-04-16T08:15:34.836Z,11.7
2017-04-16T08:16:00.326Z,11.6
2017-04-16T08:16:25.863Z,11.48
2017-04-16T08:16:51.427Z,11.41
2017-04-16T08:17:16.938Z,11.55
2017-04-16T08:17:42.427Z,11.5
2017-04-16T08:18:07.958Z,11.32
2017-04-16T08:18:33.455Z,11.5
2017-04-16T08:18:58.976Z,11.47
2017-04-16T08:19:24.449Z,11.52
2017-04-16T08:19:49.973Z,11.6
2017-04-16T08:20:15.471Z,11.6
2017-04-16T08:20:41.020Z,11.77
2017-04-16T08:21:06.510Z,11.68
2017-04-16T08:21:32.023Z,11.69
2017-04-16T08:21:57.511Z,11.65
2017-04-16T08:22:23.014Z,11.66
2017-04-16T08:22:48.499Z,11.63
2017-04-16T08:23:13.991Z,11.77
2017-04-16T08:23:39.469Z,11.59
2017-04-16T08:24:04.996Z,11.75
2017-04-16T08:24:30.503Z,11.73
2017-04-16T08:24:56.011Z,11.62
2017-04-16T08:25:21.513Z,11.83
2017-04-16T08:25:47.021Z,11.75
2017-04-16T08:26:12.541Z,11.81
2017-04-16T08:26:38.041Z,11.81
2017-04-16T08:27:03.528Z,11.81
2017-04-16T08:27:29.009Z,11.73
2017-04-16T08:27:54.531Z,11.8
2017-04-16T08:28:20.030Z,11.81
2017-04-16T08:28:45.498Z,11.81
2017-04-16T08:29:11.015Z,11.68
2017-04-16T08:29:36.603Z,11.72
2017-04-16T08:30:02.097Z,11.66
2017-04-16T08:30:27.607Z,11.63
2017-04-16T08:30:53.128Z,11.7
2017-04-16T08:31:18.619Z,11.6
2017-04-16T08:31:44.160Z,11.6
2017-04-16T08:32:09.633Z,11.63
2017-04-16T08:32:35.115Z,11.65
2017-04-16T08:33:00.578Z,11.6
2017-04-16T08:33:26.048Z,11.65
2017-04-16T08:33:51.495Z,11.63
2017-04-16T08:34:16.952Z,11.63
2017-04-16T08:34:42.433Z,11.59
2017-04-16T08:35:07.917Z,11.63
2017-04-16T08:35:33.410Z,11.72
2017-04-16T08:35:58.850Z,11.66
2017-04-16T08:36:24.618Z,11.81
2017-04-16T08:36:50.577Z,11.6
2017-04-16T08:37:16.238Z,11.63
2017-04-16T08:37:41.717Z,11.62
2017-04-16T08:38:07.186Z,11.65
2017-04-16T08:38:32.670Z,11.72
2017-04-16T08:38:58.175Z,11.81
2017-04-16T08:39:23.704Z,11.68
2017-04-16T08:39:49.354Z,11.77
2017-04-16T08:40:14.757Z,11.78
2017-04-16T08:40:40.283Z,11.87
2017-04-16T08:41:06.320Z,11.83
2017-04-16T08:41:31.777Z,11.94
2017-04-16T08:41:57.547Z,11.94
2017-04-16T08:42:23.095Z,11.88
2017-04-16T08:42:48.615Z,12.1
2017-04-16T08:43:14.062Z,12
2017-04-16T08:43:39.567Z,12.06
2017-04-16T08:44:05.091Z,11.87
2017-04-16T08:44:30.611Z,11.78
2017-04-16T08:44:56.116Z,11.84
2017-04-16T08:45:21.656Z,11.94
2017-04-16T08:45:47.259Z,11.73
2017-04-16T08:46:12.815Z,11.86
2017-04-16T08:46:38.305Z,11.77
2017-04-16T08:47:03.815Z,11.77
2017-04-16T08:47:29.363Z,11.84
2017-04-16T08:47:54.879Z,11.86
2017-04-16T08:48:20.361Z,11.75
2017-04-16T08:48:45.885Z,11.86
2017-04-16T08:49:11.446Z,11.94
2017-04-16T08:49:36.971Z,11.9
2017-04-16T08:50:02.487Z,12.1
2017-04-16T08:50:27.993Z,11.95
2017-04-16T08:50:53.510Z,11.94
2017-04-16T08:51:18.968Z,12.02
2017-04-16T08:51:44.461Z,11.91
2017-04-16T08:52:09.959Z,12.04
2017-04-16T08:52:35.468Z,12.04
2017-04-16T08:53:01.109Z,12.04
2017-04-16T08:53:26.677Z,11.94
2017-04-16T08:53:52.177Z,11.91
2017-04-16T08:54:17.688Z,11.99
2017-04-16T08:54:43.187Z,11.91
2017-04-16T08:55:08.701Z,11.86
2017-04-16T08:55:34.206Z,11.87
2017-04-16T08:55:59.671Z,12.04
2017-04-16T08:56:25.156Z,12.02
2017-04-16T08:56:50.666Z,11.99
2017-04-16T08:57:16.189Z,12.15
2017-04-16T08:57:41.727Z,12.12
2017-04-16T08:58:07.252Z,12.15
2017-04-16T08:58:32.729Z,12.18
2017-04-16T08:58:58.238Z,12.25
2017-04-16T08:59:23.729Z,12.24
2017-04-16T08:59:49.246Z,12.22
2017-04-16T09:00:14.721Z,12.27
2017-04-16T09:00:40.224Z,12.27
2017-04-16T09:01:05.708Z,12.39
2017-04-16T09:01:31.240Z,12.39
2017-04-16T09:01:56.747Z,12.22
2017-04-16T09:02:22.253Z,12.49
2017-04-16T09:02:47.770Z,12.49
2017-04-16T09:03:13.283Z,12.61
2017-04-16T09:03:38.768Z,12.32
2017-04-16T09:04:04.263Z,12.35
2017-04-16T09:04:29.757Z,12.4
2017-04-16T09:04:55.288Z,12.46
2017-04-16T09:05:20.767Z,12.57
2017-04-16T09:05:46.281Z,12.58
2017-04-16T09:06:11.763Z,12.61
2017-04-16T09:06:37.246Z,12.32
2017-04-16T09:07:02.745Z,12.62
2017-04-16T09:07:28.241Z,12.47
2017-04-16T09:07:53.742Z,12.47
2017-04-16T09:08:19.200Z,12.32
2017-04-16T09:08:44.736Z,12.31
2017-04-16T09:09:10.254Z,12.46
2017-04-16T09:09:35.775Z,12.45
2017-04-16T09:10:01.306Z,12.73
2017-04-16T09:10:26.881Z,12.65
2017-04-16T09:10:52.365Z,12.65
2017-04-16T09:11:17.838Z,12.72
2017-04-16T09:11:43.331Z,12.8
2017-04-16T09:12:08.843Z,12.83
2017-04-16T09:12:34.346Z,12.6
2017-04-16T09:12:59.818Z,12.65
2017-04-16T09:13:25.324Z,12.85
2017-04-16T09:13:50.821Z,12.75
2017-04-16T09:14:16.312Z,12.75
2017-04-16T09:14:41.861Z,12.93
2017-04-16T09:15:07.316Z,12.73
2017-04-16T09:15:32.814Z,12.65
2017-04-16T09:15:58.309Z,12.68
2017-04-16T09:16:23.791Z,12.73
2017-04-16T09:16:49.411Z,12.7
2017-04-16T09:17:14.941Z,12.75
2017-04-16T09:17:40.435Z,12.53
2017-04-16T09:18:05.975Z,12.49
2017-04-16T09:18:31.456Z,12.6
2017-04-16T09:18:56.965Z,12.53
2017-04-16T09:19:22.471Z,12.6
2017-04-16T09:19:47.914Z,12.61
2017-04-16T09:20:13.420Z,12.64
2017-04-16T09:20:38.851Z,12.76
2017-04-16T09:21:04.328Z,12.68
2017-04-16T09:21:29.781Z,12.8
2017-04-16T09:21:55.274Z,12.78
2017-04-16T09:22:20.753Z,12.87
2017-04-16T09:22:46.192Z,12.91
2017-04-16T09:23:11.671Z,12.9
2017-04-16T09:23:37.223Z,12.86
2017-04-16T09:24:02.648Z,12.75
2017-04-16T09:24:28.673Z,12.82
2017-04-16T09:24:54.194Z,12.87
2017-04-16T09:25:20.369Z,12.82
2017-04-16T09:25:45.941Z,12.7
2017-04-16T09:26:11.396Z,12.67
2017-04-16T09:26:37.257Z,12.68
2017-04-16T09:27:02.712Z,12.82
2017-04-16T09:27:28.248Z,12.86
2017-04-16T09:27:53.774Z,12.83
2017-04-16T09:28:19.255Z,12.78
2017-04-16T09:28:44.789Z,12.75
2017-04-16T09:29:10.273Z,12.85
2017-04-16T09:29:35.844Z,12.86
2017-04-16T09:30:01.350Z,12.76
2017-04-16T09:30:27.412Z,12.7
2017-04-16T09:30:52.949Z,12.8
2017-04-16T09:31:18.422Z,12.83
2017-04-16T09:31:43.909Z,12.85
2017-04-16T09:32:09.445Z,12.8
2017-04-16T09:32:35.034Z,12.8
2017-04-16T09:33:00.535Z,12.75
2017-04-16T09:33:26.060Z,12.86
2017-04-16T09:33:51.608Z,13
2017-04-16T09:34:17.087Z,12.97
2017-04-16T09:34:42.573Z,13.01
2017-04-16T09:35:08.056Z,13.09
2017-04-16T09:35:33.554Z,13.04
2017-04-16T09:35:59.130Z,13.13
2017-04-16T09:36:24.651Z,13.23
2017-04-16T09:36:50.149Z,13.28